createdAt,value
2016-03-10T00:00:54.907Z,70.1
2016-03-10T00:01:54.909Z,70.2
2016-03-10T00:02:54.928Z,70.1
2016-03-10T00:03:54.930Z,70.01
2016-03-10T00:04:54.949Z,70.29
2016-03-10T00:05:54.973Z,70.92
2016-03-10T00:06:54.976Z,70.92
2016-03-10T00:07:54.978Z,71.33
2016-03-10T00:08:54.997Z,71.33
2016-03-10T00:09:55.000Z,71.04
2016-03-10T00:10:55.033Z,71.3
2016-03-10T00:11:55.036Z,71.33
2016-03-10T00:12:55.054Z,71.33
2016-03-10T00:13:55.057Z,71.33
2016-03-10T00:14:55.060Z,71.04
2016-03-10T00:15:55.078Z,70.67
2016-03-10T00:16:55.096Z,70.48
2016-03-10T00:17:55.100Z,70.48
2016-03-10T00:18:55.117Z,70.76
2016-03-10T00:19:55.136Z,71.14
2016-03-10T00:20:55.154Z,71.23
2016-03-10T00:21:55.141Z,71.14
2016-03-10T00:22:55.174Z,70.95
2016-03-10T00:23:55.178Z,70.95
2016-03-10T00:24:55.196Z,71.01
2016-03-10T00:25:55.199Z,71.04
2016-03-10T00:26:55.217Z,70.54
2016-03-10T00:27:55.220Z,70.63
2016-03-10T00:28:55.238Z,71.11
2016-03-10T00:29:55.256Z,71.48
2016-03-10T00:30:55.275Z,71.77
2016-03-10T00:31:55.282Z,71.95
2016-03-10T00:32:55.290Z,71.67
2016-03-10T00:33:55.292Z,71.77
2016-03-10T00:34:55.311Z,71.77
2016-03-10T00:35:55.329Z,71.58
2016-03-10T00:36:55.332Z,71.58
2016-03-10T00:37:55.357Z,71.77
2016-03-10T00:38:55.359Z,72.05
2016-03-10T00:39:55.362Z,71.77
2016-03-10T00:40:55.411Z,71.67
2016-03-10T00:41:55.384Z,71.58
2016-03-10T00:42:55.401Z,71.48
2016-03-10T00:43:55.420Z,71.67
2016-03-10T00:44:55.438Z,72.33
2016-03-10T00:45:55.426Z,72.8
2016-03-10T00:46:55.459Z,73.37
2016-03-10T00:47:55.493Z,72.62
2016-03-10T00:48:55.464Z,72.62
2016-03-10T00:49:55.498Z,72.14
2016-03-10T00:50:55.501Z,71.58
2016-03-10T00:51:55.504Z,71.77
2016-03-10T00:52:55.523Z,71.77
2016-03-10T00:53:55.541Z,71.77
2016-03-10T00:54:55.543Z,71.77
2016-03-10T00:55:55.546Z,72.9
2016-03-10T00:56:55.564Z,72.9
2016-03-10T00:57:55.597Z,72.71
2016-03-10T00:58:55.601Z,73.09
2016-03-10T00:59:55.603Z,72.9
2016-03-10T01:00:55.622Z,72.9
2016-03-10T01:01:55.624Z,72.62
2016-03-10T01:02:55.643Z,72.9
2016-03-10T01:03:55.645Z,72.8
2016-03-10T01:04:55.664Z,72.8
2016-03-10T01:05:55.682Z,73.56
2016-03-10T01:06:55.685Z,73.66
2016-03-10T01:07:55.687Z,73.85
2016-03-10T01:08:55.706Z,73.56
2016-03-10T01:09:55.709Z,73.94
2016-03-10T01:10:55.727Z,73.47
2016-03-10T01:11:55.745Z,73.47
2016-03-10T01:12:55.763Z,73.75
2016-03-10T01:13:55.766Z,73.37
2016-03-10T01:14:55.784Z,73.09
2016-03-10T01:15:55.787Z,73.5
2016-03-10T01:16:55.805Z,73.56
2016-03-10T01:17:55.823Z,73.37
2016-03-10T01:18:55.826Z,73.28
2016-03-10T01:19:55.876Z,73.66
2016-03-10T01:20:55.847Z,74.04
2016-03-10T01:21:55.866Z,73.94
2016-03-10T01:22:55.868Z,74.32
2016-03-10T01:23:55.887Z,74.13
2016-03-10T01:24:55.905Z,73.56
2016-03-10T01:25:55.923Z,73.56
2016-03-10T01:26:55.911Z,73.66
2016-03-10T01:27:55.929Z,73.75
2016-03-10T01:28:55.791Z,73.85
2016-03-10T01:29:55.950Z,73.66
2016-03-10T01:30:55.952Z,73.47
2016-03-10T01:31:55.986Z,73.41
2016-03-10T01:32:55.989Z,73.13
2016-03-10T01:33:55.992Z,72.85
2016-03-10T01:34:56.010Z,72.75
2016-03-10T01:35:56.028Z,72.66
2016-03-10T01:36:56.031Z,72.66
2016-03-10T01:37:56.049Z,72.37
2016-03-10T01:38:56.052Z,72.47
2016-03-10T01:39:56.070Z,72.56
2016-03-10T01:40:56.089Z,72.75
2016-03-10T01:41:56.076Z,72.47
2016-03-10T01:42:56.110Z,72.66
2016-03-10T01:43:56.112Z,72.47
2016-03-10T01:44:56.115Z,72.75
2016-03-10T01:45:56.133Z,73.13
2016-03-10T01:46:56.152Z,72.66
2016-03-10T01:47:56.170Z,72.94
2016-03-10T01:48:56.173Z,73.03
2016-03-10T01:49:56.191Z,72.9
2016-03-10T01:50:56.209Z,72.9
2016-03-10T01:51:56.228Z,73.03
2016-03-10T01:52:56.215Z,72.99
2016-03-10T01:53:56.233Z,72.75
2016-03-10T01:54:56.251Z,72.71
2016-03-10T01:55:56.254Z,72.9
2016-03-10T01:56:56.272Z,73.47
2016-03-10T01:57:56.275Z,73.09
2016-03-10T01:58:56.308Z,73.47
2016-03-10T01:59:56.296Z,73.85
2016-03-10T02:00:56.361Z,73.18
2016-03-10T02:01:56.348Z,74.04
2016-03-10T02:02:56.351Z,73.75
2016-03-10T02:03:56.354Z,73.66
2016-03-10T02:04:56.356Z,73.37
2016-03-10T02:05:56.375Z,73.47
2016-03-10T02:06:56.393Z,73.56
2016-03-10T02:07:56.380Z,73.47
2016-03-10T02:08:56.414Z,73.75
2016-03-10T02:09:56.417Z,73.75
2016-03-10T02:10:56.435Z,73.85
2016-03-10T02:11:56.438Z,74.04
2016-03-10T02:12:56.456Z,73.94
2016-03-10T02:13:56.474Z,73.85
2016-03-10T02:14:56.477Z,73.09
2016-03-10T02:15:56.495Z,73.56
2016-03-10T02:16:56.498Z,73.75
2016-03-10T02:17:56.516Z,73.94
2016-03-10T02:18:56.519Z,74.22
2016-03-10T02:19:56.522Z,73.85
2016-03-10T02:20:56.556Z,73.75
2016-03-10T02:21:56.558Z,73.56
2016-03-10T02:22:56.577Z,74.22
2016-03-10T02:23:56.579Z,74.13
2016-03-10T02:24:56.598Z,74.79
2016-03-10T02:25:56.600Z,75.26
2016-03-10T02:26:56.619Z,75.07
2016-03-10T02:27:56.621Z,74.98
2016-03-10T02:28:56.640Z,74.88
2016-03-10T02:29:56.658Z,75.17
2016-03-10T02:30:56.661Z,75.45
2016-03-10T02:31:56.679Z,75.07
2016-03-10T02:32:56.682Z,74.98
2016-03-10T02:33:56.700Z,74.88
2016-03-10T02:34:56.718Z,75.07
2016-03-10T02:35:56.705Z,75.36
2016-03-10T02:36:56.739Z,75.64
2016-03-10T02:37:56.742Z,76.02
2016-03-10T02:38:56.760Z,75.64
2016-03-10T02:39:56.763Z,75.45
2016-03-10T02:40:56.781Z,75.64
2016-03-10T02:41:56.815Z,75.64
2016-03-10T02:42:56.818Z,75.07
2016-03-10T02:43:56.805Z,75.26
2016-03-10T02:44:56.823Z,75.51
2016-03-10T02:45:56.826Z,76.12
2016-03-10T02:46:56.844Z,76.02
2016-03-10T02:47:56.848Z,75.74
2016-03-10T02:48:56.881Z,76.4
2016-03-10T02:49:56.884Z,76.02
2016-03-10T02:50:56.886Z,75.83
2016-03-10T02:51:56.905Z,76.21
2016-03-10T02:52:56.923Z,76.12
2016-03-10T02:53:56.942Z,75.93
2016-03-10T02:54:56.944Z,75.45
2016-03-10T02:55:56.947Z,75.74
2016-03-10T02:56:56.965Z,75.55
2016-03-10T02:57:57.000Z,76.02
2016-03-10T02:58:56.986Z,76.02
2016-03-10T02:59:57.004Z,75.74
2016-03-10T03:00:57.007Z,75.45
2016-03-10T03:01:57.010Z,75.55
2016-03-10T03:02:57.028Z,74.98
2016-03-10T03:03:57.030Z,74.98
2016-03-10T03:04:57.049Z,74.79
2016-03-10T03:05:57.067Z,75.64
2016-03-10T03:06:57.070Z,75.45
2016-03-10T03:07:57.088Z,75.64
2016-03-10T03:08:57.091Z,75.07
2016-03-10T03:09:57.124Z,75.55
2016-03-10T03:10:57.112Z,75.55
2016-03-10T03:11:57.130Z,75.55
2016-03-10T03:12:57.180Z,75.83
2016-03-10T03:13:57.151Z,76.21
2016-03-10T03:14:57.170Z,75.93
2016-03-10T03:15:57.188Z,76.31
2016-03-10T03:16:57.191Z,76.31
2016-03-10T03:17:57.209Z,76.4
2016-03-10T03:18:57.196Z,76.4
2016-03-10T03:19:57.230Z,75.74
2016-03-10T03:20:57.233Z,75.26
2016-03-10T03:21:57.251Z,75.55
2016-03-10T03:22:57.254Z,75.64
2016-03-10T03:23:57.272Z,75.93
2016-03-10T03:24:57.290Z,75.79
2016-03-10T03:25:57.293Z,75.79
2016-03-10T03:26:57.296Z,76.17
2016-03-10T03:27:57.314Z,76.26
2016-03-10T03:28:57.316Z,77.21
2016-03-10T03:29:57.335Z,77.69
2016-03-10T03:30:57.353Z,77.5
2016-03-10T03:31:57.356Z,77.59
2016-03-10T03:32:57.374Z,77.21
2016-03-10T03:33:57.392Z,77.69
2016-03-10T03:34:57.395Z,77.21
2016-03-10T03:35:57.398Z,77.78
2016-03-10T03:36:57.416Z,77.5
2016-03-10T03:37:57.434Z,77.21
2016-03-10T03:38:57.437Z,77.78
2016-03-10T03:39:57.455Z,77.5
2016-03-10T03:40:57.458Z,77.5
2016-03-10T03:41:57.476Z,77.4
2016-03-10T03:42:57.479Z,77.72
2016-03-10T03:43:57.497Z,77.21
2016-03-10T03:44:57.500Z,77.82
2016-03-10T03:45:57.518Z,77.44
2016-03-10T03:46:57.537Z,76.68
2016-03-10T03:47:57.554Z,76.97
2016-03-10T03:48:57.543Z,76.87
2016-03-10T03:49:57.560Z,77.72
2016-03-10T03:50:57.579Z,76.97
2016-03-10T03:51:57.581Z,77.25
2016-03-10T03:52:57.600Z,76.97
2016-03-10T03:53:57.634Z,77.06
2016-03-10T03:54:57.621Z,77.25
2016-03-10T03:55:57.639Z,77.34
2016-03-10T03:56:57.642Z,77.06
2016-03-10T03:57:57.660Z,76.78
2016-03-10T03:58:57.678Z,77.02
2016-03-10T03:59:57.666Z,76.36
2016-03-10T04:00:57.684Z,77.02
2016-03-10T04:01:57.702Z,76.93
2016-03-10T04:02:57.705Z,77.69
2016-03-10T04:03:57.739Z,77.4
2016-03-10T04:04:57.726Z,77.69
2016-03-10T04:05:57.744Z,77.4
2016-03-10T04:06:57.747Z,77.4
2016-03-10T04:07:57.765Z,77.31
2016-03-10T04:08:57.783Z,77.5
2016-03-10T04:09:57.786Z,77.78
2016-03-10T04:10:57.804Z,77.12
2016-03-10T04:11:57.807Z,77.21
2016-03-10T04:12:57.825Z,77.31
2016-03-10T04:13:57.860Z,77.31
2016-03-10T04:14:57.846Z,76.83
2016-03-10T04:15:57.865Z,77.31
2016-03-10T04:16:57.867Z,77.31
2016-03-10T04:17:57.871Z,77.31
2016-03-10T04:18:57.888Z,77.5
2016-03-10T04:19:57.891Z,77.5
2016-03-10T04:20:57.910Z,77.5
2016-03-10T04:21:57.929Z,76.93
2016-03-10T04:22:57.946Z,77.02
2016-03-10T04:23:57.949Z,77.69
2016-03-10T04:24:57.952Z,77.59
2016-03-10T04:25:57.970Z,77.12
2016-03-10T04:26:57.222Z,77.12
2016-03-10T04:27:57.991Z,77.31
2016-03-10T04:28:57.994Z,77.5
2016-03-10T04:29:58.028Z,77.12
2016-03-10T04:30:58.030Z,77.78
2016-03-10T04:31:58.017Z,77.4
2016-03-10T04:32:58.036Z,77.97
2016-03-10T04:33:58.054Z,78.06
2016-03-10T04:34:58.072Z,78.44
2016-03-10T04:35:58.090Z,78.44
2016-03-10T04:36:58.093Z,79.1
2016-03-10T04:37:58.111Z,78.91
2016-03-10T04:38:58.114Z,78.81
2016-03-10T04:39:58.132Z,78.72
2016-03-10T04:40:58.135Z,79.1
2016-03-10T04:41:58.153Z,79.57
2016-03-10T04:42:58.156Z,79.29
2016-03-10T04:43:58.159Z,79
2016-03-10T04:44:58.177Z,79.38
2016-03-10T04:45:58.195Z,78.53
2016-03-10T04:46:58.213Z,78.91
2016-03-10T04:47:58.232Z,79.38
2016-03-10T04:48:58.219Z,79.19
2016-03-10T04:49:58.237Z,78.53
2016-03-10T04:50:58.240Z,78.91
2016-03-10T04:51:58.273Z,78.44
2016-03-10T04:52:58.262Z,79
2016-03-10T04:53:58.295Z,78.91
2016-03-10T04:54:58.314Z,79.19
2016-03-10T04:55:58.316Z,79.38
2016-03-10T04:56:58.319Z,78.72
2016-03-10T04:57:58.321Z,78.81
2016-03-10T04:58:58.325Z,79.19
2016-03-10T04:59:58.358Z,79
2016-03-10T05:00:58.361Z,79.38
2016-03-10T05:01:58.378Z,79.48
2016-03-10T05:02:58.381Z,79.57
2016-03-10T05:03:58.400Z,79.76
2016-03-10T05:04:58.402Z,79.95
2016-03-10T05:05:58.421Z,80.05
2016-03-10T05:06:58.424Z,80.05
2016-03-10T05:07:58.427Z,79.95
2016-03-10T05:08:58.444Z,79.76
2016-03-10T05:09:58.447Z,79.76
2016-03-10T05:10:58.466Z,79.38
2016-03-10T05:11:58.485Z,79.76
2016-03-10T05:12:58.488Z,79.57
2016-03-10T05:13:58.505Z,79.57
2016-03-10T05:14:58.508Z,79.76
2016-03-10T05:15:58.510Z,79.48
2016-03-10T05:16:58.529Z,79.38
2016-03-10T05:17:58.547Z,79.67
2016-03-10T05:18:58.549Z,79.95
2016-03-10T05:19:58.568Z,80.33
2016-03-10T05:20:58.571Z,80.24
2016-03-10T05:21:58.604Z,80.33
2016-03-10T05:22:58.592Z,80.24
2016-03-10T05:23:58.610Z,80.24
2016-03-10T05:24:58.628Z,80.24
2016-03-10T05:25:58.631Z,80.24
2016-03-10T05:26:58.650Z,80.8
2016-03-10T05:27:58.653Z,80.71
2016-03-10T05:28:58.655Z,80.71
2016-03-10T05:29:58.673Z,80.99
2016-03-10T05:30:58.692Z,81.09
2016-03-10T05:31:58.709Z,81.18
2016-03-10T05:32:58.697Z,80.99
2016-03-10T05:33:58.730Z,80.99
2016-03-10T05:34:58.733Z,81.18
2016-03-10T05:35:58.580Z,80.71
2016-03-10T05:36:58.754Z,81.65
2016-03-10T05:37:58.757Z,81.65
2016-03-10T05:38:58.775Z,80.9
2016-03-10T05:39:58.793Z,80.99
2016-03-10T05:40:58.796Z,80.99
2016-03-10T05:41:58.815Z,80.71
2016-03-10T05:42:58.818Z,79.95
2016-03-10T05:43:58.836Z,79.48
2016-03-10T05:44:58.838Z,79.48
2016-03-10T05:45:58.841Z,79
2016-03-10T05:46:58.860Z,79
2016-03-10T05:47:58.878Z,79.19
2016-03-10T05:48:58.880Z,79.76
2016-03-10T05:49:58.915Z,79.95
2016-03-10T05:50:58.902Z,80.24
2016-03-10T05:51:58.920Z,80.05
2016-03-10T05:52:58.923Z,79.95
2016-03-10T05:53:58.940Z,80.24
2016-03-10T05:54:58.943Z,80.43
2016-03-10T05:55:58.946Z,80.24
2016-03-10T05:56:58.964Z,79.76
2016-03-10T05:57:58.967Z,79.86
2016-03-10T05:58:58.986Z,79.95
2016-03-10T05:59:59.003Z,80.71
2016-03-10T06:00:59.006Z,80.52
2016-03-10T06:01:59.039Z,80.8
2016-03-10T06:02:59.027Z,81.27
2016-03-10T06:03:59.045Z,81.09
2016-03-10T06:04:59.048Z,80.99
2016-03-10T06:05:59.065Z,80.99
2016-03-10T06:06:58.911Z,81.27
2016-03-10T06:07:59.086Z,81.09
2016-03-10T06:08:59.104Z,81.09
2016-03-10T06:09:59.123Z,80.9
2016-03-10T06:10:59.125Z,80.52
2016-03-10T06:11:59.127Z,80.8
2016-03-10T06:12:59.146Z,80.62
2016-03-10T06:13:59.149Z,80.52
2016-03-10T06:14:59.167Z,79.95
2016-03-10T06:15:59.200Z,80.14
2016-03-10T06:16:59.203Z,80.33
2016-03-10T06:17:59.206Z,79.95
2016-03-10T06:18:59.209Z,79.38
2016-03-10T06:19:59.227Z,79.19
2016-03-10T06:20:59.230Z,79.1
2016-03-10T06:21:59.248Z,79.29
2016-03-10T06:22:59.251Z,79.19
2016-03-10T06:23:59.269Z,79.29
2016-03-10T06:24:59.288Z,79
2016-03-10T06:25:59.290Z,78.63
2016-03-10T06:26:59.293Z,78.34
2016-03-10T06:27:59.311Z,78.34
2016-03-10T06:28:59.314Z,78.34
2016-03-10T06:29:59.332Z,78.16
2016-03-10T06:30:59.335Z,78.16
2016-03-10T06:31:59.384Z,78.72
2016-03-10T06:32:59.372Z,78.25
2016-03-10T06:33:59.390Z,78.53
2016-03-10T06:34:59.377Z,78.34
2016-03-10T06:35:59.411Z,78.16
2016-03-10T06:36:59.414Z,77.97
2016-03-10T06:37:59.416Z,77.87
2016-03-10T06:38:59.435Z,77.59
2016-03-10T06:39:59.437Z,77.59
2016-03-10T06:40:59.456Z,77.59
2016-03-10T06:41:59.458Z,77.59
2016-03-10T06:42:59.477Z,77.59
2016-03-10T06:43:59.495Z,77.5
2016-03-10T06:44:59.529Z,77.59
2016-03-10T06:45:59.516Z,77.31
2016-03-10T06:46:59.519Z,77.06
2016-03-10T06:47:59.537Z,77.25
2016-03-10T06:48:59.540Z,77.34
2016-03-10T06:49:59.558Z,77.06
2016-03-10T06:50:59.576Z,77.15
2016-03-10T06:51:59.595Z,76.97
2016-03-10T06:52:59.597Z,76.68
2016-03-10T06:53:59.600Z,77.15
2016-03-10T06:54:59.634Z,77.25
2016-03-10T06:55:59.621Z,77.06
2016-03-10T06:56:59.639Z,77.06
2016-03-10T06:57:59.658Z,76.4
2016-03-10T06:58:59.660Z,76.4
2016-03-10T06:59:59.679Z,76.59
2016-03-10T07:00:59.697Z,76.68
2016-03-10T07:01:59.700Z,76.59
2016-03-10T07:02:59.702Z,76.59
2016-03-10T07:03:59.721Z,76.68
2016-03-10T07:04:59.739Z,76.31
2016-03-10T07:05:59.757Z,75.78
2016-03-10T07:06:59.745Z,75.4
2016-03-10T07:07:59.763Z,74.83
2016-03-10T07:08:59.781Z,75.02
2016-03-10T07:09:59.783Z,75.02
2016-03-10T07:10:59.817Z,74.55
2016-03-10T07:11:59.805Z,74.36
2016-03-10T07:12:59.823Z,73.5
2016-03-10T07:13:59.841Z,73.6
2016-03-10T07:14:59.860Z,73.6
2016-03-10T07:15:59.862Z,72.75
2016-03-10T07:16:59.865Z,72.47
2016-03-10T07:17:59.899Z,71.8
2016-03-10T07:18:59.902Z,71.84
2016-03-10T07:19:59.904Z,71.46
2016-03-10T07:20:59.923Z,71.36
2016-03-10T07:21:59.941Z,71.08
2016-03-10T07:22:59.944Z,70.79
2016-03-10T07:23:59.962Z,70.42
2016-03-10T07:24:59.980Z,70.14
2016-03-10T07:26:00.014Z,70.14
2016-03-10T07:26:59.985Z,69.76
2016-03-10T07:28:00.051Z,69.28
2016-03-10T07:29:00.022Z,68.9
2016-03-10T07:30:00.025Z,68.46
2016-03-10T07:31:00.043Z,68.27
2016-03-10T07:32:00.062Z,68.56
2016-03-10T07:33:00.064Z,68.18
2016-03-10T07:34:00.083Z,68.08
2016-03-10T07:35:00.101Z,67.71
2016-03-10T07:36:00.120Z,67.43
2016-03-10T07:37:00.122Z,67.05
2016-03-10T07:38:00.140Z,67.24
2016-03-10T07:39:00.143Z,66.28
2016-03-10T07:40:00.161Z,66.76
2016-03-10T07:41:00.164Z,66.38
2016-03-10T07:42:00.198Z,66.38
2016-03-10T07:43:00.217Z,65.81
2016-03-10T07:44:00.203Z,65.91
2016-03-10T07:45:00.237Z,65.75
2016-03-10T07:46:00.225Z,65.94
2016-03-10T07:47:00.253Z,65.19
2016-03-10T07:48:00.248Z,65.19
2016-03-10T07:49:00.276Z,65.47
2016-03-10T07:50:00.257Z,65.28
2016-03-10T07:51:00.254Z,64.9
2016-03-10T07:52:00.284Z,63.76
2016-03-10T07:53:00.300Z,63.39
2016-03-10T07:54:00.316Z,63.57
2016-03-10T07:55:00.300Z,63.39
2016-03-10T07:56:00.317Z,63.39
2016-03-10T07:57:00.334Z,63.29
2016-03-10T07:58:00.352Z,63.2
2016-03-10T07:59:00.385Z,62.53
2016-03-10T08:00:00.387Z,62.82
2016-03-10T08:01:00.373Z,62.34
2016-03-10T08:02:00.391Z,62.53
2016-03-10T08:03:00.409Z,62.05
2016-03-10T08:04:00.442Z,62.47
2016-03-10T08:05:00.429Z,62.37
2016-03-10T08:06:00.447Z,61.33
2016-03-10T08:07:00.449Z,61.33
2016-03-10T08:08:00.467Z,61.14
2016-03-10T08:09:00.486Z,60.95
2016-03-10T08:10:00.504Z,61.33
2016-03-10T08:11:00.507Z,61.71
2016-03-10T08:12:00.525Z,61.14
2016-03-10T08:13:00.544Z,61.05
2016-03-10T08:14:00.546Z,60.57
2016-03-10T08:15:00.565Z,60.86
2016-03-10T08:16:00.567Z,60.86
2016-03-10T08:17:00.586Z,61.24
2016-03-10T08:18:00.604Z,60.47
2016-03-10T08:19:00.622Z,60.1
2016-03-10T08:20:00.641Z,60
2016-03-10T08:21:00.643Z,60.1
2016-03-10T08:22:00.662Z,60
2016-03-10T08:23:00.664Z,59.72
2016-03-10T08:24:00.683Z,59.72
2016-03-10T08:25:00.701Z,59.53
2016-03-10T08:26:00.719Z,58.96
2016-03-10T08:27:00.738Z,58.96
2016-03-10T08:28:00.724Z,58.86
2016-03-10T08:29:00.743Z,59.08
2016-03-10T08:30:00.761Z,58.61
2016-03-10T08:31:00.780Z,58.39
2016-03-10T08:32:00.782Z,58.14
2016-03-10T08:33:00.801Z,58.42
2016-03-10T08:34:00.819Z,58.42
2016-03-10T08:35:00.868Z,58.33
2016-03-10T08:36:00.840Z,58.42
2016-03-10T08:37:00.858Z,57.47
2016-03-10T08:38:00.862Z,57.28
2016-03-10T08:39:00.879Z,56.99
2016-03-10T08:40:00.913Z,56.9
2016-03-10T08:41:00.916Z,57.57
2016-03-10T08:42:00.981Z,57.38
2016-03-10T08:43:00.937Z,57.38
2016-03-10T08:44:00.987Z,56.9
2016-03-10T08:45:00.974Z,56.71
2016-03-10T08:46:01.023Z,57.09
2016-03-10T08:47:01.041Z,56.52
2016-03-10T08:48:01.091Z,56.52
2016-03-10T08:49:01.031Z,56.9
2016-03-10T08:50:01.096Z,56.81
2016-03-10T08:51:01.083Z,56.71
2016-03-10T08:52:01.102Z,56.43
2016-03-10T08:53:01.073Z,55.86
2016-03-10T08:54:01.139Z,55.7
2016-03-10T08:55:01.094Z,55.89
2016-03-10T08:56:01.144Z,55.76
2016-03-10T08:57:01.131Z,55.7
2016-03-10T08:58:01.180Z,55.6
2016-03-10T08:59:01.042Z,55.22
2016-03-10T09:00:01.216Z,54.66
2016-03-10T09:01:01.188Z,54.85
2016-03-10T09:02:01.207Z,54.85
2016-03-10T09:03:01.209Z,54.75
2016-03-10T09:04:01.244Z,55.22
2016-03-10T09:05:01.246Z,54.85
2016-03-10T09:06:01.265Z,55.13
2016-03-10T09:07:01.263Z,55.04
2016-03-10T09:08:01.297Z,54.94
2016-03-10T09:09:01.300Z,54.27
2016-03-10T09:10:01.302Z,54.18
2016-03-10T09:11:01.336Z,53.89
2016-03-10T09:12:01.339Z,53.99
2016-03-10T09:13:01.358Z,54.08
2016-03-10T09:14:01.391Z,54.37
2016-03-10T09:15:01.393Z,54.37
2016-03-10T09:16:01.413Z,53.89
2016-03-10T09:17:01.415Z,53.33
2016-03-10T09:18:01.433Z,53.89
2016-03-10T09:19:01.451Z,53.23
2016-03-10T09:20:01.454Z,53.7
2016-03-10T09:21:01.488Z,54.27
2016-03-10T09:22:01.490Z,53.7
2016-03-10T09:23:01.494Z,53.8
2016-03-10T09:24:01.512Z,53.52
2016-03-10T09:25:01.530Z,53.99
2016-03-10T09:26:01.548Z,53.89
2016-03-10T09:27:01.551Z,53.89
2016-03-10T09:28:01.570Z,54.21
2016-03-10T09:29:01.604Z,53.45
2016-03-10T09:30:01.591Z,53.07
2016-03-10T09:31:01.609Z,52.95
2016-03-10T09:33:01.645Z,52.5
2016-03-10T09:34:01.664Z,52.4
2016-03-10T09:35:01.682Z,52.76
2016-03-10T09:36:01.700Z,53.16
2016-03-10T09:37:01.703Z,53.04
2016-03-10T09:38:01.722Z,53.14
2016-03-10T09:39:01.739Z,53.73
2016-03-10T09:40:01.775Z,53.73
2016-03-10T09:41:01.761Z,53.54
2016-03-10T09:42:01.780Z,53.83
2016-03-10T09:43:01.844Z,53.92
2016-03-10T09:44:01.675Z,53.14
2016-03-10T09:45:01.819Z,52.76
2016-03-10T09:46:01.837Z,53.14
2016-03-10T09:47:01.855Z,52.85
2016-03-10T09:48:01.874Z,52.85
2016-03-10T09:49:01.876Z,52.85
2016-03-10T09:50:01.894Z,53.33
2016-03-10T09:51:01.918Z,53.04
2016-03-10T09:52:01.921Z,52.76
2016-03-10T09:53:01.923Z,52.87
2016-03-10T09:54:01.956Z,52.59
2016-03-10T09:55:01.960Z,51.93
2016-03-10T09:56:01.978Z,51.64
2016-03-10T09:57:01.981Z,51.74
2016-03-10T09:58:02.015Z,51.93
2016-03-10T09:59:02.034Z,52.02
2016-03-10T10:00:02.051Z,51.74
2016-03-10T10:01:02.053Z,51.64
2016-03-10T10:02:02.057Z,51.83
2016-03-10T10:03:02.075Z,52.02
2016-03-10T10:04:02.078Z,51.83
2016-03-10T10:05:02.111Z,51.36
2016-03-10T10:06:02.114Z,51.07
2016-03-10T10:07:02.133Z,50.79
2016-03-10T10:08:02.150Z,50.98
2016-03-10T10:09:02.169Z,50.98
2016-03-10T10:10:02.188Z,50.98
2016-03-10T10:11:02.190Z,51.36
2016-03-10T10:12:02.208Z,51.74
2016-03-10T10:13:02.227Z,51.64
2016-03-10T10:14:02.245Z,52.02
2016-03-10T10:15:02.248Z,51.83
2016-03-10T10:16:02.250Z,51.74
2016-03-10T10:17:02.285Z,51.45
2016-03-10T10:18:02.302Z,50.7
2016-03-10T10:19:02.305Z,50.89
2016-03-10T10:20:02.355Z,51.07
2016-03-10T10:21:02.342Z,50.62
2016-03-10T10:22:05.360Z,50.79
2016-03-10T10:23:02.379Z,51.07
2016-03-10T10:24:02.382Z,51.2
2016-03-10T10:25:02.400Z,50.15
2016-03-10T10:26:02.402Z,49.58
2016-03-10T10:27:02.420Z,50.22
2016-03-10T10:28:02.423Z,50.12
2016-03-10T10:29:02.457Z,50.43
2016-03-10T10:30:02.460Z,50.22
2016-03-10T10:31:16.556Z,50.34
2016-03-10T10:32:02.497Z,50.79
2016-03-10T10:33:02.500Z,50.53
2016-03-10T10:34:02.533Z,50.72
2016-03-10T10:35:02.552Z,50.51
2016-03-10T10:36:02.555Z,50.24
2016-03-10T10:37:02.557Z,49.49
2016-03-10T10:38:02.591Z,49.1
2016-03-10T10:39:02.609Z,49.39
2016-03-10T10:40:02.596Z,49.39
2016-03-10T10:41:02.630Z,48.82
2016-03-10T10:42:02.633Z,48.82
2016-03-10T10:43:02.651Z,48.91
2016-03-10T10:44:02.669Z,49.29
2016-03-10T10:45:02.704Z,49.29
2016-03-10T10:46:02.706Z,50.05
2016-03-10T10:47:02.710Z,49.49
2016-03-10T10:48:02.727Z,49.49
2016-03-10T10:49:02.746Z,49.49
2016-03-10T10:50:02.763Z,49.96
2016-03-10T10:51:02.782Z,49.58
2016-03-10T10:52:02.785Z,49.58
2016-03-10T10:53:02.803Z,49.49
2016-03-10T10:54:02.806Z,49.58
2016-03-10T10:55:02.840Z,49.87
2016-03-10T10:56:02.843Z,50.05
2016-03-10T10:57:02.861Z,50.34
2016-03-10T10:58:02.879Z,50.43
2016-03-10T10:59:02.912Z,51.1
2016-03-10T11:00:02.915Z,50.79
2016-03-10T11:01:02.903Z,50.98
2016-03-10T11:02:02.937Z,51.29
2016-03-10T11:03:02.956Z,51.26
2016-03-10T11:04:02.958Z,51.55
2016-03-10T11:05:02.976Z,51.64
2016-03-10T11:06:02.978Z,51.64
2016-03-10T11:07:02.997Z,52.02
2016-03-10T11:08:03.015Z,52.12
2016-03-10T11:09:03.034Z,52.02
2016-03-10T11:10:03.036Z,52.02
2016-03-10T11:11:03.069Z,52.02
2016-03-10T11:12:03.072Z,52.02
2016-03-10T11:13:03.091Z,51.93
2016-03-10T11:14:03.110Z,51.83
2016-03-10T11:15:03.113Z,52.5
2016-03-10T11:16:03.521Z,52.12
2016-03-10T11:17:03.162Z,52.5
2016-03-10T11:18:03.165Z,52.22
2016-03-10T11:19:03.168Z,52.02
2016-03-10T11:20:03.201Z,51.86
2016-03-10T11:21:03.204Z,51.74
2016-03-10T11:22:03.206Z,51.86
2016-03-10T11:23:03.240Z,51.86
2016-03-10T11:24:03.243Z,51.67
2016-03-10T11:25:03.262Z,51.74
2016-03-10T11:26:03.279Z,51.95
2016-03-10T11:27:03.282Z,52.53
2016-03-10T11:28:03.317Z,51.67
2016-03-10T11:29:03.335Z,51.2
2016-03-10T11:30:03.368Z,51.1
2016-03-10T11:31:03.356Z,51.01
2016-03-10T11:32:03.374Z,50.81
2016-03-10T11:33:03.220Z,51.1
2016-03-10T11:34:03.395Z,50.72
2016-03-10T11:35:03.414Z,50.53
2016-03-10T11:36:03.463Z,50.34
2016-03-10T11:37:03.450Z,50.43
2016-03-10T11:38:03.484Z,50.15
2016-03-10T11:39:03.472Z,50.15
2016-03-10T11:40:03.505Z,50.24
2016-03-10T11:41:03.508Z,50.24
2016-03-10T11:42:03.541Z,49.96
2016-03-10T11:43:03.544Z,49.49
2016-03-10T11:44:03.563Z,49.77
2016-03-10T11:45:03.549Z,49.77
2016-03-10T11:46:03.568Z,49.51
2016-03-10T11:47:03.586Z,49.51
2016-03-10T11:48:03.604Z,48.56
2016-03-10T11:49:03.623Z,48.94
2016-03-10T11:50:03.626Z,48.66
2016-03-10T11:51:03.660Z,48.94
2016-03-10T11:52:03.662Z,49.22
2016-03-10T11:53:03.696Z,48.85
2016-03-10T11:54:03.699Z,48.85
2016-03-10T11:55:03.718Z,49.13
2016-03-10T11:56:03.720Z,48.85
2016-03-10T11:57:03.738Z,48.85
2016-03-10T11:58:03.757Z,48.94
2016-03-10T11:59:03.760Z,48.66
2016-03-10T12:00:03.778Z,48.85
2016-03-10T12:01:03.843Z,48.56
2016-03-10T12:02:03.830Z,48.94
2016-03-10T12:03:03.832Z,47.8
2016-03-10T12:04:03.835Z,48.01
2016-03-10T12:05:03.869Z,48.01
2016-03-10T12:06:03.873Z,47.73
2016-03-10T12:07:03.889Z,47.63
2016-03-10T12:08:03.925Z,47.63
2016-03-10T12:09:03.928Z,47.92
2016-03-10T12:10:03.944Z,48.08
2016-03-10T12:11:03.948Z,48.58
2016-03-10T12:12:03.981Z,47.92
2016-03-10T12:13:03.983Z,47.92
2016-03-10T12:14:04.002Z,48.01
2016-03-10T12:15:04.021Z,47.82
2016-03-10T12:16:04.024Z,48.49
2016-03-10T12:17:04.041Z,48.87
2016-03-10T12:18:04.092Z,48.58
2016-03-10T12:19:04.079Z,48.68
2016-03-10T12:20:04.097Z,48.21
2016-03-10T12:21:04.116Z,48.3
2016-03-10T12:22:04.165Z,47.92
2016-03-10T12:23:04.152Z,47.92
2016-03-10T12:24:04.186Z,48.01
2016-03-10T12:25:04.188Z,48.11
2016-03-10T12:26:04.191Z,49.35
2016-03-10T12:27:04.226Z,48.96
2016-03-10T12:28:04.212Z,48.87
2016-03-10T12:29:04.231Z,48.77
2016-03-10T12:30:04.280Z,48.77
2016-03-10T12:31:04.283Z,49.06
2016-03-10T12:32:04.348Z,48.77
2016-03-10T12:33:04.288Z,48.96
2016-03-10T12:34:04.432Z,49.41
2016-03-10T12:35:04.356Z,48.94
2016-03-10T12:36:04.390Z,49.51
2016-03-10T12:37:04.346Z,50.18
2016-03-10T12:38:04.395Z,50.65
2016-03-10T12:39:04.383Z,50.27
2016-03-10T12:40:04.448Z,50.18
2016-03-10T12:41:04.420Z,50.18
2016-03-10T12:42:04.484Z,50.46
2016-03-10T12:43:04.456Z,50.27
2016-03-10T12:44:04.490Z,50.18
2016-03-10T12:45:04.477Z,50.93
2016-03-10T12:46:04.511Z,51.12
2016-03-10T12:47:04.498Z,50.84
2016-03-10T12:48:04.547Z,50.74
2016-03-10T12:49:04.535Z,50.84
2016-03-10T12:50:04.568Z,50.74
2016-03-10T12:51:04.555Z,51.03
2016-03-10T12:52:04.574Z,51.22
2016-03-10T12:53:04.608Z,50.84
2016-03-10T12:54:04.611Z,50.74
2016-03-10T12:55:04.644Z,51.22
2016-03-10T12:56:04.632Z,51.98
2016-03-10T12:57:04.665Z,51.89